createdAt,value
2023-01-01T00:00:02.770Z,13.20
2023-01-01T00:02:37.482Z,13.20
2023-01-01T00:05:05.665Z,13.20
2023-01-01T00:07:32.737Z,13.20
2023-01-01T00:10:18.240Z,13.20
2023-01-01T00:12:45.303Z,13.00
2023-01-01T00:15:12.214Z,13.00
2023-01-01T00:17:39.105Z,12.80
2023-01-01T00:20:06.871Z,12.70
2023-01-01T00:25:20.872Z,12.60
2023-01-01T00:27:47.791Z,12.60
2023-01-01T00:30:15.151Z,12.60
2023-01-01T00:32:42.135Z,12.50
2023-01-01T00:35:09.745Z,12.40
2023-01-01T00:37:39.440Z,12.50
2023-01-01T00:40:10.774Z,12.80
2023-01-01T00:42:40.867Z,12.80
2023-01-01T00:45:08.270Z,12.90
2023-01-01T00:47:35.252Z,12.90
2023-01-01T00:50:02.531Z,12.80
2023-01-01T00:52:29.510Z,12.80
2023-01-01T00:54:56.358Z,12.70
2023-01-01T00:57:23.247Z,12.50
2023-01-01T00:59:50.401Z,12.30
2023-01-01T01:02:17.429Z,12.10
2023-01-01T01:04:44.322Z,12.00
2023-01-01T01:07:11.243Z,11.90
2023-01-01T01:09:38.131Z,11.90
2023-01-01T01:12:17.633Z,11.70
2023-01-01T01:14:46.685Z,11.70
2023-01-01T01:17:13.551Z,11.50
2023-01-01T01:19:40.473Z,11.50
2023-01-01T01:22:07.333Z,11.50
2023-01-01T01:24:34.361Z,11.50
2023-01-01T01:27:01.660Z,11.40
2023-01-01T01:29:28.584Z,11.40
2023-01-01T01:31:55.497Z,11.30
2023-01-01T01:34:27.433Z,11.40
2023-01-01T01:36:55.111Z,11.30
2023-01-01T01:39:22.522Z,11.30
2023-01-01T01:41:49.490Z,11.30
2023-01-01T01:44:54.285Z,11.30
2023-01-01T01:47:44.367Z,11.20
2023-01-01T01:50:30.549Z,11.00
2023-01-01T01:53:16.085Z,11.10
2023-01-01T01:55:53.744Z,10.90
2023-01-01T01:58:21.269Z,10.90
2023-01-01T02:00:48.732Z,10.80
2023-01-01T02:03:22.580Z,10.80
2023-01-01T02:05:51.327Z,10.80
2023-01-01T02:08:19.176Z,10.80
2023-01-01T02:10:46.093Z,10.80
2023-01-01T02:13:13.886Z,10.80
2023-01-01T02:15:53.038Z,10.80
2023-01-01T02:18:29.695Z,10.80
2023-01-01T02:21:13.361Z,10.70
2023-01-01T02:23:53.794Z,10.70
2023-01-01T02:26:42.726Z,10.70
2023-01-01T02:29:30.431Z,10.70
2023-01-01T02:32:08.758Z,10.70
2023-01-01T02:34:54.895Z,10.70
2023-01-01T02:37:24.465Z,10.70
2023-01-01T02:39:58.269Z,10.60
2023-01-01T02:42:29.189Z,10.60
2023-01-01T02:44:59.293Z,10.50
2023-01-01T02:47:26.100Z,10.50
2023-01-01T02:50:08.343Z,10.50
2023-01-01T02:53:08.039Z,10.50
2023-01-01T02:55:39.107Z,10.50
2023-01-01T02:58:43.717Z,10.50
2023-01-01T03:05:02.089Z,10.50
2023-01-01T03:07:56.659Z,10.60
2023-01-01T03:10:39.171Z,10.50
2023-01-01T03:13:25.131Z,10.60
2023-01-01T03:16:14.210Z,10.80
2023-01-01T03:23:24.767Z,11.30
2023-01-01T03:25:56.204Z,11.30
2023-01-01T03:28:28.740Z,11.30
2023-01-01T03:30:57.517Z,11.10
2023-01-01T03:33:32.510Z,11.00
2023-01-01T04:06:45.853Z,11.60
2023-01-01T04:09:19.951Z,11.60
2023-01-01T04:12:04.549Z,11.70
2023-01-01T04:14:33.463Z,11.70
2023-01-01T04:17:01.191Z,11.70
2023-01-01T04:19:28.239Z,11.80
2023-01-01T04:21:55.174Z,11.90
2023-01-01T04:24:23.252Z,12.10
2023-01-01T04:26:51.975Z,12.40
2023-01-01T04:29:19.714Z,12.60
2023-01-01T04:31:47.194Z,12.80
2023-01-01T04:34:14.429Z,12.90
2023-01-01T04:36:44.753Z,13.00
2023-01-01T04:39:12.001Z,13.10
2023-01-01T04:41:39.468Z,13.20
2023-01-01T04:44:10.111Z,13.40
2023-01-01T04:46:37.608Z,13.40
2023-01-01T04:49:05.383Z,13.50
2023-01-01T04:51:32.785Z,13.60
2023-01-01T04:54:00.527Z,13.60
2023-01-01T04:56:32.460Z,13.70
2023-01-01T04:58:59.340Z,13.70
2023-01-01T05:01:28.552Z,13.90
2023-01-01T05:04:20.144Z,13.90
2023-01-01T08:37:46.899Z,13.90
2023-01-01T08:40:13.935Z,14.00
2023-01-01T08:42:41.575Z,14.00
2023-01-01T08:45:08.818Z,14.10
2023-01-01T08:47:35.821Z,14.10
2023-01-01T08:50:02.533Z,14.20
2023-01-01T08:52:32.683Z,14.20
2023-01-01T08:54:59.545Z,14.20
2023-01-01T08:57:26.331Z,14.30
2023-01-01T08:59:53.161Z,14.30
2023-01-01T09:02:20.054Z,14.30
2023-01-01T09:04:46.866Z,14.40
2023-01-01T09:07:13.635Z,14.50
2023-01-01T09:09:40.366Z,14.50
2023-01-01T09:12:09.214Z,14.60
2023-01-01T09:14:35.965Z,14.60
2023-01-01T09:17:02.816Z,14.60
2023-01-01T09:19:29.730Z,14.70
2023-01-01T09:21:56.891Z,14.70
2023-01-01T09:24:24.061Z,14.80
2023-01-01T09:26:51.102Z,14.70
2023-01-01T09:29:20.562Z,14.70
2023-01-01T09:31:48.762Z,14.80
2023-01-01T09:34:16.677Z,14.90
2023-01-01T09:36:44.080Z,14.90
2023-01-01T09:39:15.649Z,15.00
2023-01-01T09:42:21.511Z,15.00
2023-01-01T09:45:09.471Z,15.00
2023-01-01T09:47:41.224Z,15.00
2023-01-01T09:50:15.042Z,15.00
2023-01-01T09:53:04.636Z,15.10
2023-01-01T09:55:55.213Z,15.10
2023-01-01T09:58:28.632Z,15.20
2023-01-01T10:01:01.599Z,15.30
2023-01-01T10:03:39.962Z,15.30
2023-01-01T10:06:27.647Z,15.40
2023-01-01T10:09:27.289Z,15.40
2023-01-01T10:12:22.281Z,15.40
2023-01-01T10:15:00.983Z,15.50
2023-01-01T10:17:37.955Z,15.60
2023-01-01T10:20:15.467Z,15.60
2023-01-01T10:22:46.019Z,15.60
2023-01-01T10:25:25.372Z,15.70
2023-01-01T10:28:11.387Z,15.70
2023-01-01T10:30:40.095Z,15.80
2023-01-01T10:33:14.436Z,15.70
2023-01-01T10:35:50.249Z,15.80
2023-01-01T10:38:25.939Z,15.80
2023-01-01T10:40:58.170Z,15.70
2023-01-01T10:43:25.022Z,15.80
2023-01-01T10:45:54.799Z,15.80
2023-01-01T10:48:24.002Z,15.90
2023-01-01T10:51:14.142Z,15.90
2023-01-01T10:53:43.452Z,16.00
2023-01-01T10:56:11.851Z,16.00
2023-01-01T10:58:46.155Z,16.00
2023-01-01T11:01:26.553Z,16.10
2023-01-01T11:03:54.808Z,16.20
2023-01-01T11:06:23.348Z,16.10
2023-01-01T11:08:55.620Z,16.10
2023-01-01T11:11:26.471Z,16.10
2023-01-01T11:13:56.523Z,16.10
2023-01-01T11:16:24.898Z,16.10
2023-01-01T11:18:51.832Z,16.10
2023-01-01T11:21:24.076Z,16.00
2023-01-01T11:24:09.150Z,15.90
2023-01-01T11:26:35.987Z,15.90
2023-01-01T11:29:28.913Z,15.90
2023-01-01T11:31:57.066Z,15.90
2023-01-01T11:34:56.071Z,15.90
2023-01-01T11:37:34.114Z,16.00
2023-01-01T11:40:02.519Z,16.00
2023-01-01T11:42:32.410Z,16.00
2023-01-01T11:45:17.956Z,16.00
2023-01-01T11:47:45.899Z,16.00
2023-01-01T11:50:35.192Z,16.00
2023-01-01T11:53:24.381Z,16.00
2023-01-01T11:56:17.220Z,16.00
2023-01-01T11:59:00.032Z,16.10
2023-01-01T12:01:51.206Z,16.20
2023-01-01T12:04:24.200Z,16.20
2023-01-01T12:06:50.976Z,16.20
2023-01-01T12:09:32.292Z,16.20
2023-01-01T12:12:15.706Z,16.10
2023-01-01T12:15:12.770Z,16.10
2023-01-01T12:17:58.214Z,16.20
2023-01-01T12:20:37.559Z,16.20
2023-01-01T12:23:04.938Z,16.20
2023-01-01T12:25:44.044Z,16.20
2023-01-01T12:28:41.548Z,16.10
2023-01-01T12:31:49.922Z,16.20
2023-01-01T12:34:30.654Z,16.20
2023-01-01T12:37:01.656Z,16.10
2023-01-01T12:40:19.676Z,16.10
2023-01-01T12:43:08.475Z,16.10
2023-01-01T12:45:59.445Z,16.10
2023-01-01T12:48:40.860Z,16.10
2023-01-01T12:51:32.671Z,16.10
2023-01-01T12:54:05.311Z,16.00
2023-01-01T12:56:49.755Z,16.00
2023-01-01T12:59:26.279Z,15.90
2023-01-01T13:01:58.499Z,15.80
2023-01-01T13:04:25.414Z,15.80
2023-01-01T13:07:06.193Z,15.70
2023-01-01T13:09:45.202Z,15.80
2023-01-01T13:12:16.698Z,15.80
2023-01-01T13:14:45.246Z,15.70
2023-01-01T13:17:22.723Z,15.80
2023-01-01T13:19:59.419Z,15.80
2023-01-01T13:22:26.161Z,15.80
2023-01-01T13:25:11.369Z,15.80
2023-01-01T13:27:57.659Z,15.80
2023-01-01T13:30:39.784Z,15.80
2023-01-01T13:33:23.223Z,15.80
2023-01-01T13:36:11.315Z,15.80
2023-01-01T13:38:58.650Z,15.70
2023-01-01T13:41:43.956Z,15.70
2023-01-01T13:44:11.711Z,15.60
2023-01-01T13:46:44.848Z,15.60
2023-01-01T13:49:42.765Z,15.70
2023-01-01T13:52:38.563Z,15.70
2023-01-01T13:55:22.723Z,15.60
2023-01-01T13:58:13.357Z,15.60
2023-01-01T14:00:50.147Z,15.60
2023-01-01T14:03:18.389Z,15.60
2023-01-01T14:05:58.448Z,15.60
2023-01-01T14:08:37.605Z,15.60
2023-01-01T14:11:20.235Z,15.50
2023-01-01T14:13:47.637Z,15.50
2023-01-01T14:16:16.992Z,15.50
2023-01-01T14:18:49.890Z,15.50
2023-01-01T14:21:21.679Z,15.50
2023-01-01T14:24:08.439Z,15.50
2023-01-01T14:26:39.029Z,15.50
2023-01-01T14:29:13.563Z,15.40
2023-01-01T14:31:44.400Z,15.30
2023-01-01T14:34:27.750Z,15.30
2023-01-01T14:36:56.727Z,15.40
2023-01-01T14:39:27.948Z,15.30
2023-01-01T14:42:06.802Z,15.30
2023-01-01T14:44:37.720Z,15.20
2023-01-01T14:47:14.261Z,15.20
2023-01-01T14:49:42.479Z,15.10
2023-01-01T14:52:17.853Z,15.10
2023-01-01T14:54:46.323Z,15.10
2023-01-01T14:57:24.345Z,15.00
2023-01-01T14:59:55.887Z,15.00
2023-01-01T15:02:30.212Z,14.90
2023-01-01T15:04:58.139Z,14.90
2023-01-01T15:07:30.428Z,14.90
2023-01-01T15:10:01.036Z,14.80
2023-01-01T15:12:28.861Z,14.90
2023-01-01T15:14:58.088Z,14.90
2023-01-01T15:17:26.812Z,14.90
2023-01-01T15:20:19.488Z,14.80
2023-01-01T15:22:46.852Z,14.80
2023-01-01T15:25:16.097Z,14.70
2023-01-01T15:27:44.434Z,14.60
2023-01-01T15:30:25.534Z,14.60
2023-01-01T15:32:52.868Z,14.60
2023-01-01T15:35:31.253Z,14.30
2023-01-01T15:38:22.503Z,14.30
2023-01-01T15:40:53.573Z,14.10
2023-01-01T15:43:30.914Z,14.00
2023-01-01T15:46:18.846Z,14.00
2023-01-01T15:48:53.508Z,14.00
2023-01-01T15:51:26.630Z,14.00
2023-01-01T15:54:06.409Z,14.00
2023-01-01T15:56:39.208Z,13.80
2023-01-01T15:59:17.199Z,13.70
2023-01-01T16:01:44.271Z,13.70
2023-01-01T16:04:28.088Z,13.50
2023-01-01T16:06:58.147Z,13.50
2023-01-01T16:09:25.474Z,13.50
2023-01-01T16:11:54.570Z,13.40
2023-01-01T16:14:22.150Z,13.40
2023-01-01T16:16:53.835Z,13.30
2023-01-01T16:19:22.551Z,13.30
2023-01-01T16:21:49.332Z,13.20
2023-01-01T16:24:18.459Z,13.20
2023-01-01T16:26:45.755Z,13.30
2023-01-01T16:29:12.765Z,13.10
2023-01-01T16:31:40.343Z,13.10
2023-01-01T16:34:07.471Z,13.00
2023-01-01T16:36:34.280Z,12.90
2023-01-01T16:39:01.379Z,12.90
2023-01-01T16:41:31.423Z,12.80
2023-01-01T16:43:58.374Z,12.80
2023-01-01T16:46:27.890Z,12.70
2023-01-01T16:48:54.785Z,12.70
2023-01-01T16:51:24.916Z,12.80
2023-01-01T16:53:51.746Z,12.80
2023-01-01T16:56:18.723Z,12.80
2023-01-01T16:58:50.721Z,12.80
2023-01-01T17:01:18.467Z,12.80
2023-01-01T17:03:45.366Z,12.70
2023-01-01T17:06:14.219Z,12.60
2023-01-01T17:08:41.085Z,12.60
2023-01-01T17:11:15.092Z,12.60
2023-01-01T17:13:43.439Z,12.70
2023-01-01T17:16:12.071Z,12.70
2023-01-01T17:19:13.411Z,12.60
2023-01-01T17:21:27.152Z,12.60
2023-01-01T17:23:54.018Z,12.60
2023-01-01T17:26:24.328Z,12.60
2023-01-01T17:28:58.205Z,12.70
2023-01-01T17:31:28.689Z,12.70
2023-01-01T17:33:55.907Z,12.80
2023-01-01T17:36:22.757Z,12.70
2023-01-01T17:38:49.612Z,12.70
2023-01-01T17:41:17.388Z,12.70
2023-01-01T17:43:46.153Z,12.80
2023-01-01T17:46:18.692Z,12.70
2023-01-01T17:48:46.010Z,12.70
2023-01-01T17:51:14.504Z,12.50
2023-01-01T17:53:42.145Z,12.40
2023-01-01T17:56:14.331Z,12.40
2023-01-01T17:58:42.525Z,12.30
2023-01-01T18:01:12.556Z,12.30
2023-01-01T18:03:41.072Z,12.20
2023-01-01T18:06:08.355Z,12.20
2023-01-01T18:08:35.197Z,12.20
2023-01-01T18:11:02.201Z,12.20
2023-01-01T18:13:29.091Z,12.20
2023-01-01T18:16:07.261Z,12.20
2023-01-01T18:18:41.126Z,12.20
2023-01-01T18:21:14.492Z,12.20
2023-01-01T18:23:41.863Z,12.20
2023-01-01T18:26:10.307Z,12.20
2023-01-01T18:28:37.916Z,12.20
2023-01-01T18:31:14.170Z,12.10
2023-01-01T18:33:41.816Z,12.10
2023-01-01T18:36:12.718Z,12.00
2023-01-01T18:38:43.640Z,11.90
2023-01-01T18:41:41.098Z,11.90
2023-01-01T18:44:19.989Z,12.00
2023-01-01T18:46:55.930Z,11.90
2023-01-01T18:49:25.245Z,11.90
2023-01-01T18:51:57.427Z,11.80
2023-01-01T18:54:24.915Z,11.80
2023-01-01T18:57:23.646Z,11.70
2023-01-01T18:59:57.549Z,11.70
2023-01-01T19:02:44.541Z,11.70
2023-01-01T19:05:33.244Z,11.70
2023-01-01T19:08:13.151Z,11.70
2023-01-01T19:10:48.814Z,11.70
2023-01-01T19:13:24.537Z,11.60
2023-01-01T19:15:57.150Z,11.60
2023-01-01T19:18:29.639Z,11.60
2023-01-01T19:21:09.005Z,11.60
2023-01-01T19:23:38.892Z,11.50
2023-01-01T19:26:11.560Z,11.50
2023-01-01T19:28:39.710Z,11.50
2023-01-01T19:31:08.500Z,11.50
2023-01-01T19:33:38.452Z,11.50
2023-01-01T19:36:08.230Z,11.50
2023-01-01T19:38:39.637Z,11.40
2023-01-01T19:41:07.822Z,11.40
2023-01-01T19:43:34.568Z,11.40
2023-01-01T19:46:01.531Z,11.40
2023-01-01T19:48:29.279Z,11.40
2023-01-01T19:50:57.148Z,11.40
2023-01-01T19:53:23.958Z,11.40
2023-01-01T19:55:50.793Z,11.30
2023-01-01T19:58:19.948Z,11.30
2023-01-01T20:00:46.930Z,11.30
2023-01-01T20:06:02.287Z,11.30
2023-01-01T20:08:29.132Z,11.30
2023-01-01T20:10:55.883Z,11.30
2023-01-01T20:13:23.614Z,11.30
2023-01-01T20:15:50.463Z,11.40
2023-01-01T20:18:17.558Z,11.40
2023-01-01T20:21:02.910Z,11.40
2023-01-01T20:23:29.749Z,11.40
2023-01-01T20:25:56.505Z,11.50
2023-01-01T20:28:41.779Z,11.70
2023-01-01T20:31:08.793Z,11.70
2023-01-01T20:33:35.758Z,11.70
2023-01-01T20:36:20.962Z,11.70
2023-01-01T20:38:47.724Z,11.70
2023-01-01T20:41:23.354Z,11.70
2023-01-01T20:43:51.838Z,11.80
2023-01-01T20:46:18.968Z,11.90
2023-01-01T20:48:45.809Z,12.00
2023-01-01T20:51:12.780Z,12.00
2023-01-01T20:53:39.813Z,12.00
2023-01-01T20:56:09.932Z,12.00
2023-01-01T20:58:37.317Z,12.10
2023-01-01T21:01:06.403Z,12.10
2023-01-01T21:03:33.435Z,12.10
2023-01-01T21:06:00.323Z,12.10
2023-01-01T21:08:27.164Z,12.20
2023-01-01T21:10:54.034Z,12.20
2023-01-01T21:13:20.932Z,12.40
2023-01-01T21:15:47.756Z,12.50
2023-01-01T21:18:14.772Z,12.60
2023-01-01T21:20:46.422Z,12.70
2023-01-01T21:23:29.153Z,12.70
2023-01-01T21:25:57.166Z,12.70
2023-01-01T21:28:32.945Z,12.80
2023-01-01T21:31:01.335Z,12.80
2023-01-01T21:33:31.347Z,12.90
2023-01-01T21:36:01.942Z,12.90
2023-01-01T21:38:31.918Z,12.90
2023-01-01T21:41:00.072Z,12.90
2023-01-01T21:43:51.971Z,12.90
2023-01-01T21:46:24.997Z,13.00
2023-01-01T21:48:58.983Z,12.90
2023-01-01T21:51:37.043Z,12.90
2023-01-01T21:54:18.177Z,13.00
2023-01-01T21:57:06.337Z,13.00
2023-01-01T21:59:42.699Z,13.10
2023-01-01T22:02:09.619Z,13.20
2023-01-01T22:04:48.343Z,13.30
2023-01-01T22:10:35.628Z,13.30
2023-01-01T22:13:02.688Z,13.40
2023-01-01T22:15:39.660Z,13.50
2023-01-01T22:18:09.691Z,13.60
2023-01-01T22:20:38.825Z,13.60
2023-01-01T22:23:22.409Z,13.70
2023-01-01T22:25:49.526Z,13.70
2023-01-01T22:28:23.645Z,13.70
2023-01-01T22:30:57.851Z,13.70
2023-01-01T22:33:46.153Z,13.70
2023-01-01T22:36:21.380Z,13.60
2023-01-01T22:38:48.559Z,13.60
2023-01-01T22:41:15.654Z,13.60
2023-01-01T22:43:45.380Z,13.50
2023-01-01T22:46:21.685Z,13.40
2023-01-01T22:48:54.217Z,13.40
2023-01-01T22:51:28.612Z,13.30
2023-01-01T22:53:55.402Z,13.20
2023-01-01T22:56:22.370Z,13.20
2023-01-01T22:58:54.819Z,13.20
2023-01-01T23:01:23.889Z,13.20
2023-01-01T23:03:51.013Z,13.30
2023-01-01T23:06:19.118Z,13.30
2023-01-01T23:08:46.259Z,13.30
2023-01-01T23:11:13.626Z,13.30
2023-01-01T23:13:58.756Z,13.30
2023-01-01T23:16:25.552Z,13.30
2023-01-01T23:18:52.402Z,13.30
2023-01-01T23:21:26.325Z,13.30
2023-01-01T23:23:57.172Z,13.30
2023-01-01T23:26:24.867Z,13.30
2023-01-01T23:28:53.195Z,13.20
2023-01-01T23:31:25.357Z,13.10
2023-01-01T23:33:53.986Z,13.10
2023-01-01T23:36:21.011Z,13.00
2023-01-01T23:38:47.851Z,13.00
2023-01-01T23:41:14.585Z,13.00
2023-01-01T23:43:43.879Z,13.10
2023-01-01T23:46:15.473Z,13.10
2023-01-01T23:48:43.923Z,13.20
2023-01-01T23:51:11.262Z,13.20
2023-01-01T23:53:38.039Z,13.30
2023-01-01T23:56:05.252Z,13.30
2023-01-01T23:58:32.089Z,13.40
